sensor_id;sensor_type;location;lat;lon;timestamp;temperature;humidity
42339;DHT22;27993;45.392;10.918;2023-03-14T00:01:37;11.60;99.90
42339;DHT22;27993;45.392;10.918;2023-03-14T00:04:07;11.60;99.90
42339;DHT22;27993;45.392;10.918;2023-03-14T00:06:38;11.60;99.90
42339;DHT22;27993;45.392;10.918;2023-03-14T00:09:09;11.40;99.90
42339;DHT22;27993;45.392;10.918;2023-03-14T00:11:39;11.40;99.90
42339;DHT22;27993;45.392;10.918;2023-03-14T00:14:10;11.40;99.90
42339;DHT22;27993;45.392;10.918;2023-03-14T00:16:40;11.40;99.90
42339;DHT22;27993;45.392;10.918;2023-03-14T00:19:11;11.50;99.90
42339;DHT22;27993;45.392;10.918;2023-03-14T00:21:42;11.50;99.90
42339;DHT22;27993;45.392;10.918;2023-03-14T00:24:12;11.40;99.90
42339;DHT22;27993;45.392;10.918;2023-03-14T00:26:43;11.40;99.90
42339;DHT22;27993;45.392;10.918;2023-03-14T00:29:13;11.40;99.90
42339;DHT22;27993;45.392;10.918;2023-03-14T00:31:44;11.50;99.90
42339;DHT22;27993;45.392;10.918;2023-03-14T00:34:14;11.60;99.90
42339;DHT22;27993;45.392;10.918;2023-03-14T00:36:45;11.50;99.90
42339;DHT22;27993;45.392;10.918;2023-03-14T00:39:15;11.50;99.90
42339;DHT22;27993;45.392;10.918;2023-03-14T00:41:46;11.50;99.90
42339;DHT22;27993;45.392;10.918;2023-03-14T00:44:17;11.50;99.90
42339;DHT22;27993;45.392;10.918;2023-03-14T00:46:49;11.60;99.90
42339;DHT22;27993;45.392;10.918;2023-03-14T00:49:19;11.70;99.90
42339;DHT22;27993;45.392;10.918;2023-03-14T00:51:50;11.80;99.90
42339;DHT22;27993;45.392;10.918;2023-03-14T00:54:22;11.70;99.90
42339;DHT22;27993;45.392;10.918;2023-03-14T00:56:52;11.70;99.90
42339;DHT22;27993;45.392;10.918;2023-03-14T00:59:23;11.70;99.90
42339;DHT22;27993;45.392;10.918;2023-03-14T01:01:53;11.70;99.90
42339;DHT22;27993;45.392;10.918;2023-03-14T01:04:24;11.80;99.90
42339;DHT22;27993;45.392;10.918;2023-03-14T01:06:55;11.90;99.90
42339;DHT22;27993;45.392;10.918;2023-03-14T01:09:25;11.90;99.90
42339;DHT22;27993;45.392;10.918;2023-03-14T01:11:56;11.70;99.90
42339;DHT22;27993;45.392;10.918;2023-03-14T01:14:27;11.80;99.90
42339;DHT22;27993;45.392;10.918;2023-03-14T01:16:57;11.90;99.90
42339;DHT22;27993;45.392;10.918;2023-03-14T01:19:31;11.80;99.90
42339;DHT22;27993;45.392;10.918;2023-03-14T01:22:02;11.80;99.90
42339;DHT22;27993;45.392;10.918;2023-03-14T01:24:32;11.90;99.90
42339;DHT22;27993;45.392;10.918;2023-03-14T01:27:03;11.80;99.90
42339;DHT22;27993;45.392;10.918;2023-03-14T01:29:33;11.80;99.90
42339;DHT22;27993;45.392;10.918;2023-03-14T01:32:04;11.80;99.90
42339;DHT22;27993;45.392;10.918;2023-03-14T01:34:35;11.80;99.90
42339;DHT22;27993;45.392;10.918;2023-03-14T01:37:05;11.80;99.90
42339;DHT22;27993;45.392;10.918;2023-03-14T01:39:38;11.80;99.90
42339;DHT22;27993;45.392;10.918;2023-03-14T01:42:09;11.80;99.90
42339;DHT22;27993;45.392;10.918;2023-03-14T01:44:57;11.70;99.90
42339;DHT22;27993;45.392;10.918;2023-03-14T01:47:28;11.80;99.90
42339;DHT22;27993;45.392;10.918;2023-03-14T01:50:05;11.80;99.90
42339;DHT22;27993;45.392;10.918;2023-03-14T01:52:41;11.80;99.90
42339;DHT22;27993;45.392;10.918;2023-03-14T01:55:19;11.70;99.90
42339;DHT22;27993;45.392;10.918;2023-03-14T01:57:55;11.70;99.90
42339;DHT22;27993;45.392;10.918;2023-03-14T02:00:27;11.70;99.90
42339;DHT22;27993;45.392;10.918;2023-03-14T02:03:05;11.70;99.90
42339;DHT22;27993;45.392;10.918;2023-03-14T02:05:39;11.60;99.90
42339;DHT22;27993;45.392;10.918;2023-03-14T02:08:14;11.60;99.90
42339;DHT22;27993;45.392;10.918;2023-03-14T02:10:47;11.60;99.90
42339;DHT22;27993;45.392;10.918;2023-03-14T02:13:20;11.60;99.90
42339;DHT22;27993;45.392;10.918;2023-03-14T02:15:52;11.50;99.90
42339;DHT22;27993;45.392;10.918;2023-03-14T02:18:22;11.60;99.90
42339;DHT22;27993;45.392;10.918;2023-03-14T02:20:55;11.60;99.90
42339;DHT22;27993;45.392;10.918;2023-03-14T02:23:39;11.60;99.90
42339;DHT22;27993;45.392;10.918;2023-03-14T02:26:27;11.70;99.90
42339;DHT22;27993;45.392;10.918;2023-03-14T02:28:58;11.70;99.90
42339;DHT22;27993;45.392;10.918;2023-03-14T02:31:28;11.80;99.90
42339;DHT22;27993;45.392;10.918;2023-03-14T02:33:59;11.80;99.90
42339;DHT22;27993;45.392;10.918;2023-03-14T02:36:31;11.80;99.90
42339;DHT22;27993;45.392;10.918;2023-03-14T02:39:20;11.80;99.90
42339;DHT22;27993;45.392;10.918;2023-03-14T02:41:51;11.80;99.90
42339;DHT22;27993;45.392;10.918;2023-03-14T02:44:22;11.90;99.90
42339;DHT22;27993;45.392;10.918;2023-03-14T02:46:52;12.00;99.90
42339;DHT22;27993;45.392;10.918;2023-03-14T02:49:24;12.00;99.90
42339;DHT22;27993;45.392;10.918;2023-03-14T02:51:56;12.00;99.90
42339;DHT22;27993;45.392;10.918;2023-03-14T02:54:26;12.10;99.90
42339;DHT22;27993;45.392;10.918;2023-03-14T02:56:57;12.10;99.90
42339;DHT22;27993;45.392;10.918;2023-03-14T02:59:27;12.10;99.90
42339;DHT22;27993;45.392;10.918;2023-03-14T03:01:59;12.10;99.90
42339;DHT22;27993;45.392;10.918;2023-03-14T03:04:30;12.10;99.90
42339;DHT22;27993;45.392;10.918;2023-03-14T03:07:00;11.90;99.90
42339;DHT22;27993;45.392;10.918;2023-03-14T03:09:31;12.00;99.90
42339;DHT22;27993;45.392;10.918;2023-03-14T03:12:01;12.10;99.90
42339;DHT22;27993;45.392;10.918;2023-03-14T03:14:32;12.10;99.90
42339;DHT22;27993;45.392;10.918;2023-03-14T03:17:04;12.10;99.90
42339;DHT22;27993;45.392;10.918;2023-03-14T03:19:35;12.10;99.90
42339;DHT22;27993;45.392;10.918;2023-03-14T03:22:05;12.10;99.90
42339;DHT22;27993;45.392;10.918;2023-03-14T03:24:36;12.10;99.90
42339;DHT22;27993;45.392;10.918;2023-03-14T03:27:07;12.10;99.90
42339;DHT22;27993;45.392;10.918;2023-03-14T03:29:37;12.10;99.90
42339;DHT22;27993;45.392;10.918;2023-03-14T03:32:08;12.00;99.90
42339;DHT22;27993;45.392;10.918;2023-03-14T03:34:38;12.00;99.90
42339;DHT22;27993;45.392;10.918;2023-03-14T03:37:09;12.00;99.90
42339;DHT22;27993;45.392;10.918;2023-03-14T03:39:40;12.00;99.90
42339;DHT22;27993;45.392;10.918;2023-03-14T03:42:10;12.00;99.90
42339;DHT22;27993;45.392;10.918;2023-03-14T03:44:41;12.00;99.90
42339;DHT22;27993;45.392;10.918;2023-03-14T03:47:11;12.00;99.90
42339;DHT22;27993;45.392;10.918;2023-03-14T03:49:42;12.10;99.90
42339;DHT22;27993;45.392;10.918;2023-03-14T03:52:12;12.10;99.90
42339;DHT22;27993;45.392;10.918;2023-03-14T03:54:43;12.00;99.90
42339;DHT22;27993;45.392;10.918;2023-03-14T03:57:14;12.10;99.90
42339;DHT22;27993;45.392;10.918;2023-03-14T03:59:44;12.00;99.90
42339;DHT22;27993;45.392;10.918;2023-03-14T04:02:15;12.00;99.90
42339;DHT22;27993;45.392;10.918;2023-03-14T04:04:45;12.00;99.90
42339;DHT22;27993;45.392;10.918;2023-03-14T04:07:16;12.10;99.90
42339;DHT22;27993;45.392;10.918;2023-03-14T04:09:46;12.00;99.90
42339;DHT22;27993;45.392;10.918;2023-03-14T04:12:17;12.00;99.90
42339;DHT22;27993;45.392;10.918;2023-03-14T04:14:47;12.10;99.90
42339;DHT22;27993;45.392;10.918;2023-03-14T04:17:18;12.10;99.90
42339;DHT22;27993;45.392;10.918;2023-03-14T04:19:49;12.20;99.90
42339;DHT22;27993;45.392;10.918;2023-03-14T04:22:21;12.20;99.90
42339;DHT22;27993;45.392;10.918;2023-03-14T04:24:52;12.10;99.90
42339;DHT22;27993;45.392;10.918;2023-03-14T04:27:22;12.00;99.90
42339;DHT22;27993;45.392;10.918;2023-03-14T04:29:53;12.10;99.90
42339;DHT22;27993;45.392;10.918;2023-03-14T04:32:23;12.10;99.90
42339;DHT22;27993;45.392;10.918;2023-03-14T04:34:54;12.10;99.90
42339;DHT22;27993;45.392;10.918;2023-03-14T04:37:25;12.00;99.90
42339;DHT22;27993;45.392;10.918;2023-03-14T04:39:55;12.10;99.90
42339;DHT22;27993;45.392;10.918;2023-03-14T04:42:26;12.00;99.90
42339;DHT22;27993;45.392;10.918;2023-03-14T04:44:56;12.00;99.90
42339;DHT22;27993;45.392;10.918;2023-03-14T04:47:27;12.10;99.90
42339;DHT22;27993;45.392;10.918;2023-03-14T04:49:58;12.00;99.90
42339;DHT22;27993;45.392;10.918;2023-03-14T04:52:28;12.10;99.90
42339;DHT22;27993;45.392;10.918;2023-03-14T04:54:59;12.20;99.90
42339;DHT22;27993;45.392;10.918;2023-03-14T04:57:29;12.10;99.90
42339;DHT22;27993;45.392;10.918;2023-03-14T05:00:00;12.00;99.90
42339;DHT22;27993;45.392;10.918;2023-03-14T05:02:30;12.10;99.90
42339;DHT22;27993;45.392;10.918;2023-03-14T05:05:01;12.00;99.90
42339;DHT22;27993;45.392;10.918;2023-03-14T05:07:32;12.00;99.90
42339;DHT22;27993;45.392;10.918;2023-03-14T05:10:02;12.00;99.90
42339;DHT22;27993;45.392;10.918;2023-03-14T05:12:33;12.10;99.90
42339;DHT22;27993;45.392;10.918;2023-03-14T05:15:04;12.10;99.90
42339;DHT22;27993;45.392;10.918;2023-03-14T05:17:35;12.00;99.90
42339;DHT22;27993;45.392;10.918;2023-03-14T05:20:06;12.10;99.90
42339;DHT22;27993;45.392;10.918;2023-03-14T05:22:43;12.20;99.90
42339;DHT22;27993;45.392;10.918;2023-03-14T05:25:13;12.20;99.90
42339;DHT22;27993;45.392;10.918;2023-03-14T05:27:44;12.10;99.90
42339;DHT22;27993;45.392;10.918;2023-03-14T05:30:14;12.20;99.90
42339;DHT22;27993;45.392;10.918;2023-03-14T05:32:45;12.30;99.90
42339;DHT22;27993;45.392;10.918;2023-03-14T05:35:15;12.30;99.90
42339;DHT22;27993;45.392;10.918;2023-03-14T05:37:46;12.30;99.90
42339;DHT22;27993;45.392;10.918;2023-03-14T05:40:17;12.30;99.90
42339;DHT22;27993;45.392;10.918;2023-03-14T05:42:47;12.20;99.90
42339;DHT22;27993;45.392;10.918;2023-03-14T05:45:18;12.30;99.90
42339;DHT22;27993;45.392;10.918;2023-03-14T05:47:48;12.30;99.90
42339;DHT22;27993;45.392;10.918;2023-03-14T05:50:19;12.30;99.90
42339;DHT22;27993;45.392;10.918;2023-03-14T05:52:50;12.30;99.90
42339;DHT22;27993;45.392;10.918;2023-03-14T05:55:20;12.40;99.90
42339;DHT22;27993;45.392;10.918;2023-03-14T05:57:52;12.40;99.90
42339;DHT22;27993;45.392;10.918;2023-03-14T06:00:22;12.40;99.90
42339;DHT22;27993;45.392;10.918;2023-03-14T06:02:53;12.40;99.90
42339;DHT22;27993;45.392;10.918;2023-03-14T06:05:24;12.40;99.90
42339;DHT22;27993;45.392;10.918;2023-03-14T06:07:54;12.30;99.90
42339;DHT22;27993;45.392;10.918;2023-03-14T06:10:25;12.20;99.90
42339;DHT22;27993;45.392;10.918;2023-03-14T06:12:56;12.10;99.90
42339;DHT22;27993;45.392;10.918;2023-03-14T06:15:26;11.80;99.90
42339;DHT22;27993;45.392;10.918;2023-03-14T06:17:57;11.60;99.90
42339;DHT22;27993;45.392;10.918;2023-03-14T06:20:27;11.40;99.90
42339;DHT22;27993;45.392;10.918;2023-03-14T06:22:58;11.50;99.90
42339;DHT22;27993;45.392;10.918;2023-03-14T06:25:28;11.40;99.90
42339;DHT22;27993;45.392;10.918;2023-03-14T06:27:59;11.30;99.90
42339;DHT22;27993;45.392;10.918;2023-03-14T06:30:29;11.30;99.90
42339;DHT22;27993;45.392;10.918;2023-03-14T06:33:01;11.20;99.90
42339;DHT22;27993;45.392;10.918;2023-03-14T06:35:32;11.20;99.90
42339;DHT22;27993;45.392;10.918;2023-03-14T06:38:03;11.20;99.90
42339;DHT22;27993;45.392;10.918;2023-03-14T06:40:33;11.20;99.90
42339;DHT22;27993;45.392;10.918;2023-03-14T06:43:04;11.20;99.90
42339;DHT22;27993;45.392;10.918;2023-03-14T06:45:34;11.10;99.90
42339;DHT22;27993;45.392;10.918;2023-03-14T06:48:05;11.10;99.90
42339;DHT22;27993;45.392;10.918;2023-03-14T06:50:36;11.10;99.90
42339;DHT22;27993;45.392;10.918;2023-03-14T06:53:06;11.10;99.90
42339;DHT22;27993;45.392;10.918;2023-03-14T06:55:37;11.10;99.90
42339;DHT22;27993;45.392;10.918;2023-03-14T06:58:07;11.00;99.90
42339;DHT22;27993;45.392;10.918;2023-03-14T07:00:38;10.80;99.90
42339;DHT22;27993;45.392;10.918;2023-03-14T07:03:10;10.80;99.90
42339;DHT22;27993;45.392;10.918;2023-03-14T07:05:41;10.90;99.90
42339;DHT22;27993;45.392;10.918;2023-03-14T07:08:12;10.90;99.90
42339;DHT22;27993;45.392;10.918;2023-03-14T07:10:42;11.00;99.90
42339;DHT22;27993;45.392;10.918;2023-03-14T07:13:13;11.00;99.90
42339;DHT22;27993;45.392;10.918;2023-03-14T07:15:45;11.00;99.90
42339;DHT22;27993;45.392;10.918;2023-03-14T07:18:15;11.00;99.90
42339;DHT22;27993;45.392;10.918;2023-03-14T07:20:46;11.20;99.90
42339;DHT22;27993;45.392;10.918;2023-03-14T07:23:16;11.10;99.90
42339;DHT22;27993;45.392;10.918;2023-03-14T07:25:47;11.20;99.90
42339;DHT22;27993;45.392;10.918;2023-03-14T07:28:18;11.00;99.90
42339;DHT22;27993;45.392;10.918;2023-03-14T07:30:49;11.10;99.90
42339;DHT22;27993;45.392;10.918;2023-03-14T07:33:20;11.20;99.90
42339;DHT22;27993;45.392;10.918;2023-03-14T07:35:51;11.20;99.90
42339;DHT22;27993;45.392;10.918;2023-03-14T07:38:21;11.20;99.90
42339;DHT22;27993;45.392;10.918;2023-03-14T07:41:01;11.20;99.90
42339;DHT22;27993;45.392;10.918;2023-03-14T07:43:33;11.20;99.90
42339;DHT22;27993;45.392;10.918;2023-03-14T07:46:03;11.20;99.90
42339;DHT22;27993;45.392;10.918;2023-03-14T07:48:34;11.10;99.90
42339;DHT22;27993;45.392;10.918;2023-03-14T07:51:05;11.10;99.90
42339;DHT22;27993;45.392;10.918;2023-03-14T07:53:36;11.20;99.90
42339;DHT22;27993;45.392;10.918;2023-03-14T07:56:06;11.30;99.90
42339;DHT22;27993;45.392;10.918;2023-03-14T07:58:37;11.30;99.90
42339;DHT22;27993;45.392;10.918;2023-03-14T08:01:08;11.20;99.90
42339;DHT22;27993;45.392;10.918;2023-03-14T08:03:38;11.20;99.90
42339;DHT22;27993;45.392;10.918;2023-03-14T08:06:09;11.20;99.90
42339;DHT22;27993;45.392;10.918;2023-03-14T08:08:39;11.20;99.90
42339;DHT22;27993;45.392;10.918;2023-03-14T08:11:10;11.20;99.90
42339;DHT22;27993;45.392;10.918;2023-03-14T08:13:41;11.10;99.90
42339;DHT22;27993;45.392;10.918;2023-03-14T08:16:11;11.10;99.90
42339;DHT22;27993;45.392;10.918;2023-03-14T08:18:42;11.10;99.90
42339;DHT22;27993;45.392;10.918;2023-03-14T08:21:13;11.20;99.90
42339;DHT22;27993;45.392;10.918;2023-03-14T08:23:43;11.10;99.90
42339;DHT22;27993;45.392;10.918;2023-03-14T08:26:14;11.10;99.90
42339;DHT22;27993;45.392;10.918;2023-03-14T08:28:44;11.10;99.90
42339;DHT22;27993;45.392;10.918;2023-03-14T08:31:15;11.10;99.90
42339;DHT22;27993;45.392;10.918;2023-03-14T08:33:45;11.10;99.90
42339;DHT22;27993;45.392;10.918;2023-03-14T08:36:16;11.20;99.90
42339;DHT22;27993;45.392;10.918;2023-03-14T08:38:47;11.20;99.90
42339;DHT22;27993;45.392;10.918;2023-03-14T08:41:17;11.30;99.90
42339;DHT22;27993;45.392;10.918;2023-03-14T08:43:48;11.20;99.90
42339;DHT22;27993;45.392;10.918;2023-03-14T08:46:18;11.40;99.90
42339;DHT22;27993;45.392;10.918;2023-03-14T08:48:49;11.30;99.90
42339;DHT22;27993;45.392;10.918;2023-03-14T08:51:19;11.30;99.90
42339;DHT22;27993;45.392;10.918;2023-03-14T08:53:50;11.30;99.90
42339;DHT22;27993;45.392;10.918;2023-03-14T08:56:21;11.40;99.90
42339;DHT22;27993;45.392;10.918;2023-03-14T08:58:51;11.50;99.90
42339;DHT22;27993;45.392;10.918;2023-03-14T09:01:22;11.50;99.90
42339;DHT22;27993;45.392;10.918;2023-03-14T09:03:55;11.60;99.90
42339;DHT22;27993;45.392;10.918;2023-03-14T09:06:26;11.40;99.90
42339;DHT22;27993;45.392;10.918;2023-03-14T09:08:56;11.40;99.90
42339;DHT22;27993;45.392;10.918;2023-03-14T09:11:27;11.30;99.90
42339;DHT22;27993;45.392;10.918;2023-03-14T09:13:57;11.40;99.90
42339;DHT22;27993;45.392;10.918;2023-03-14T09:16:28;11.40;99.90
42339;DHT22;27993;45.392;10.918;2023-03-14T09:18:59;11.40;99.90
42339;DHT22;27993;45.392;10.918;2023-03-14T09:21:29;11.40;99.90
42339;DHT22;27993;45.392;10.918;2023-03-14T09:24:01;11.30;99.90
42339;DHT22;27993;45.392;10.918;2023-03-14T09:26:31;11.20;99.90
42339;DHT22;27993;45.392;10.918;2023-03-14T09:29:02;11.30;99.90
42339;DHT22;27993;45.392;10.918;2023-03-14T09:31:33;11.40;99.90
42339;DHT22;27993;45.392;10.918;2023-03-14T09:34:03;11.30;99.90
42339;DHT22;27993;45.392;10.918;2023-03-14T09:36:34;11.30;99.90
42339;DHT22;27993;45.392;10.918;2023-03-14T09:39:05;11.20;99.90
42339;DHT22;27993;45.392;10.918;2023-03-14T09:41:41;11.20;99.90
42339;DHT22;27993;45.392;10.918;2023-03-14T09:44:19;11.30;99.90
42339;DHT22;27993;45.392;10.918;2023-03-14T09:46:53;11.30;99.90
42339;DHT22;27993;45.392;10.918;2023-03-14T09:49:32;11.30;99.90
42339;DHT22;27993;45.392;10.918;2023-03-14T09:54:44;11.30;99.90
42339;DHT22;27993;45.392;10.918;2023-03-14T09:57:18;11.20;99.90
42339;DHT22;27993;45.392;10.918;2023-03-14T09:59:53;11.20;99.90
42339;DHT22;27993;45.392;10.918;2023-03-14T10:02:31;11.20;99.90
42339;DHT22;27993;45.392;10.918;2023-03-14T10:05:14;11.10;99.90
42339;DHT22;27993;45.392;10.918;2023-03-14T10:07:46;11.20;99.90
42339;DHT22;27993;45.392;10.918;2023-03-14T10:10:19;11.10;99.90
42339;DHT22;27993;45.392;10.918;2023-03-14T10:13:15;11.20;99.90
42339;DHT22;27993;45.392;10.918;2023-03-14T10:15:52;11.20;99.90
42339;DHT22;27993;45.392;10.918;2023-03-14T10:18:23;11.20;99.90
42339;DHT22;27993;45.392;10.918;2023-03-14T10:21:17;11.00;99.90
42339;DHT22;27993;45.392;10.918;2023-03-14T10:23:50;11.00;99.90
42339;DHT22;27993;45.392;10.918;2023-03-14T10:26:27;11.10;99.90
42339;DHT22;27993;45.392;10.918;2023-03-14T10:29:12;11.10;99.90
42339;DHT22;27993;45.392;10.918;2023-03-14T10:32:05;11.00;99.90
42339;DHT22;27993;45.392;10.918;2023-03-14T10:34:38;11.10;99.90
42339;DHT22;27993;45.392;10.918;2023-03-14T10:37:20;11.10;99.90
42339;DHT22;27993;45.392;10.918;2023-03-14T10:39:59;11.10;99.90
42339;DHT22;27993;45.392;10.918;2023-03-14T10:42:41;11.00;99.90
42339;DHT22;27993;45.392;10.918;2023-03-14T10:45:36;11.00;99.90
42339;DHT22;27993;45.392;10.918;2023-03-14T10:50:50;11.10;99.90
42339;DHT22;27993;45.392;10.918;2023-03-14T10:53:24;11.20;99.90
42339;DHT22;27993;45.392;10.918;2023-03-14T10:55:56;11.20;99.90
42339;DHT22;27993;45.392;10.918;2023-03-14T10:58:29;11.10;99.90
42339;DHT22;27993;45.392;10.918;2023-03-14T11:01:02;11.00;99.90
42339;DHT22;27993;45.392;10.918;2023-03-14T11:03:36;11.10;99.90
42339;DHT22;27993;45.392;10.918;2023-03-14T11:06:23;11.10;99.90
42339;DHT22;27993;45.392;10.918;2023-03-14T11:11:39;11.30;99.90
42339;DHT22;27993;45.392;10.918;2023-03-14T11:14:32;11.30;99.90
42339;DHT22;27993;45.392;10.918;2023-03-14T11:23:13;11.20;99.90
42339;DHT22;27993;45.392;10.918;2023-03-14T11:28:42;11.10;99.90
42339;DHT22;27993;45.392;10.918;2023-03-14T11:31:27;11.10;99.90
42339;DHT22;27993;45.392;10.918;2023-03-14T11:36:51;11.20;99.90
42339;DHT22;27993;45.392;10.918;2023-03-14T11:39:27;11.30;99.90
42339;DHT22;27993;45.392;10.918;2023-03-14T11:42:01;11.30;99.90
42339;DHT22;27993;45.392;10.918;2023-03-14T11:44:44;11.30;99.90
42339;DHT22;27993;45.392;10.918;2023-03-14T11:47:34;11.30;99.90
42339;DHT22;27993;45.392;10.918;2023-03-14T11:50:27;11.30;99.90
42339;DHT22;27993;45.392;10.918;2023-03-14T11:55:50;11.30;99.90
42339;DHT22;27993;45.392;10.918;2023-03-14T11:58:29;11.20;99.90
42339;DHT22;27993;45.392;10.918;2023-03-14T12:01:09;11.20;99.90
42339;DHT22;27993;45.392;10.918;2023-03-14T12:03:46;11.10;99.90
42339;DHT22;27993;45.392;10.918;2023-03-14T12:06:40;11.10;99.90
42339;DHT22;27993;45.392;10.918;2023-03-14T12:09:19;11.10;99.90
42339;DHT22;27993;45.392;10.918;2023-03-14T12:11:55;11.10;99.90
42339;DHT22;27993;45.392;10.918;2023-03-14T12:14:34;11.20;99.90
42339;DHT22;27993;45.392;10.918;2023-03-14T12:17:24;11.30;99.90
42339;DHT22;27993;45.392;10.918;2023-03-14T12:20:23;11.30;99.90
42339;DHT22;27993;45.392;10.918;2023-03-14T12:22:57;11.30;99.90
42339;DHT22;27993;45.392;10.918;2023-03-14T12:25:33;11.30;99.90
42339;DHT22;27993;45.392;10.918;2023-03-14T12:28:30;11.30;99.90
42339;DHT22;27993;45.392;10.918;2023-03-14T12:34:02;11.30;99.90
42339;DHT22;27993;45.392;10.918;2023-03-14T12:45:34;11.30;99.90
42339;DHT22;27993;45.392;10.918;2023-03-14T12:48:15;11.50;99.90
42339;DHT22;27993;45.392;10.918;2023-03-14T13:04:43;11.60;99.90
42339;DHT22;27993;45.392;10.918;2023-03-14T13:10:27;11.70;99.90
42339;DHT22;27993;45.392;10.918;2023-03-14T13:15:45;12.00;99.90
42339;DHT22;27993;45.392;10.918;2023-03-14T13:18:17;12.00;99.90
42339;DHT22;27993;45.392;10.918;2023-03-14T13:21:19;12.00;99.90
42339;DHT22;27993;45.392;10.918;2023-03-14T13:24:01;12.00;99.90
42339;DHT22;27993;45.392;10.918;2023-03-14T13:26:38;12.00;99.90
42339;DHT22;27993;45.392;10.918;2023-03-14T13:29:32;12.00;99.90
42339;DHT22;27993;45.392;10.918;2023-03-14T13:32:19;12.10;99.90
42339;DHT22;27993;45.392;10.918;2023-03-14T13:34:49;12.10;99.90
42339;DHT22;27993;45.392;10.918;2023-03-14T13:37:23;12.10;99.90
42339;DHT22;27993;45.392;10.918;2023-03-14T13:39:56;12.10;99.90
42339;DHT22;27993;45.392;10.918;2023-03-14T13:42:29;12.20;99.90
42339;DHT22;27993;45.392;10.918;2023-03-14T13:44:59;12.30;99.90
42339;DHT22;27993;45.392;10.918;2023-03-14T13:47:30;12.40;99.90
42339;DHT22;27993;45.392;10.918;2023-03-14T13:50:01;12.50;99.90
42339;DHT22;27993;45.392;10.918;2023-03-14T13:52:38;12.70;99.90
42339;DHT22;27993;45.392;10.918;2023-03-14T13:55:17;12.90;99.90
42339;DHT22;27993;45.392;10.918;2023-03-14T13:57:56;13.10;99.90
42339;DHT22;27993;45.392;10.918;2023-03-14T14:00:27;13.40;99.90
42339;DHT22;27993;45.392;10.918;2023-03-14T14:03:00;13.60;99.90
42339;DHT22;27993;45.392;10.918;2023-03-14T14:05:30;13.60;99.90
42339;DHT22;27993;45.392;10.918;2023-03-14T14:08:03;13.60;99.90
42339;DHT22;27993;45.392;10.918;2023-03-14T14:10:36;13.50;99.90
42339;DHT22;27993;45.392;10.918;2023-03-14T14:13:12;13.60;99.90
42339;DHT22;27993;45.392;10.918;2023-03-14T14:15:49;13.70;99.90
42339;DHT22;27993;45.392;10.918;2023-03-14T14:18:24;13.70;99.90
42339;DHT22;27993;45.392;10.918;2023-03-14T14:20:57;13.70;99.90
42339;DHT22;27993;45.392;10.918;2023-03-14T14:23:28;13.70;99.90
42339;DHT22;27993;45.392;10.918;2023-03-14T14:26:00;13.80;99.90
42339;DHT22;27993;45.392;10.918;2023-03-14T14:28:33;13.80;99.90
42339;DHT22;27993;45.392;10.918;2023-03-14T14:33:45;13.60;99.90
42339;DHT22;27993;45.392;10.918;2023-03-14T14:36:25;13.60;99.90
42339;DHT22;27993;45.392;10.918;2023-03-14T14:38:59;13.60;99.90
42339;DHT22;27993;45.392;10.918;2023-03-14T14:41:31;13.50;99.90
42339;DHT22;27993;45.392;10.918;2023-03-14T14:44:03;13.50;99.90
42339;DHT22;27993;45.392;10.918;2023-03-14T14:46:36;13.50;99.90
42339;DHT22;27993;45.392;10.918;2023-03-14T14:49:13;13.60;99.90
42339;DHT22;27993;45.392;10.918;2023-03-14T14:51:48;13.60;99.90
42339;DHT22;27993;45.392;10.918;2023-03-14T14:54:54;13.70;99.90
42339;DHT22;27993;45.392;10.918;2023-03-14T14:57:30;13.70;99.90
42339;DHT22;27993;45.392;10.918;2023-03-14T15:00:06;13.80;99.90
42339;DHT22;27993;45.392;10.918;2023-03-14T15:02:40;13.80;99.90
42339;DHT22;27993;45.392;10.918;2023-03-14T15:05:17;13.80;99.90
42339;DHT22;27993;45.392;10.918;2023-03-14T15:07:48;14.00;99.90
42339;DHT22;27993;45.392;10.918;2023-03-14T15:10:22;13.90;99.90
42339;DHT22;27993;45.392;10.918;2023-03-14T15:12:53;13.90;99.90
42339;DHT22;27993;45.392;10.918;2023-03-14T15:15:23;14.00;99.90
42339;DHT22;27993;45.392;10.918;2023-03-14T15:17:54;14.00;99.90
42339;DHT22;27993;45.392;10.918;2023-03-14T15:20:24;14.00;99.90
42339;DHT22;27993;45.392;10.918;2023-03-14T15:22:55;14.00;99.90
42339;DHT22;27993;45.392;10.918;2023-03-14T15:25:26;14.00;99.90
42339;DHT22;27993;45.392;10.918;2023-03-14T15:27:56;14.00;99.90
42339;DHT22;27993;45.392;10.918;2023-03-14T15:30:27;14.10;99.90
42339;DHT22;27993;45.392;10.918;2023-03-14T15:32:57;14.10;99.90
42339;DHT22;27993;45.392;10.918;2023-03-14T15:35:28;14.10;99.90
42339;DHT22;27993;45.392;10.918;2023-03-14T15:37:58;14.10;99.90
42339;DHT22;27993;45.392;10.918;2023-03-14T15:40:29;14.10;99.90
42339;DHT22;27993;45.392;10.918;2023-03-14T15:43:00;14.10;99.90
42339;DHT22;27993;45.392;10.918;2023-03-14T15:45:30;14.20;99.90
42339;DHT22;27993;45.392;10.918;2023-03-14T15:48:01;14.20;99.90
42339;DHT22;27993;45.392;10.918;2023-03-14T15:50:32;14.10;99.90
42339;DHT22;27993;45.392;10.918;2023-03-14T15:53:02;14.10;99.90
42339;DHT22;27993;45.392;10.918;2023-03-14T15:55:33;14.20;99.90
42339;DHT22;27993;45.392;10.918;2023-03-14T15:58:04;14.20;99.90
42339;DHT22;27993;45.392;10.918;2023-03-14T16:00:34;14.10;99.90
42339;DHT22;27993;45.392;10.918;2023-03-14T16:03:08;14.00;99.90
42339;DHT22;27993;45.392;10.918;2023-03-14T16:05:39;13.80;99.90
42339;DHT22;27993;45.392;10.918;2023-03-14T16:08:10;13.70;99.90
42339;DHT22;27993;45.392;10.918;2023-03-14T16:10:41;13.60;99.90
42339;DHT22;27993;45.392;10.918;2023-03-14T16:13:12;13.50;99.90
42339;DHT22;27993;45.392;10.918;2023-03-14T16:15:42;13.50;99.90
42339;DHT22;27993;45.392;10.918;2023-03-14T16:18:22;13.50;99.90
42339;DHT22;27993;45.392;10.918;2023-03-14T16:20:55;13.60;99.90
42339;DHT22;27993;45.392;10.918;2023-03-14T16:23:27;13.60;99.90
42339;DHT22;27993;45.392;10.918;2023-03-14T16:25:58;13.60;99.90
42339;DHT22;27993;45.392;10.918;2023-03-14T16:28:29;13.60;99.90
42339;DHT22;27993;45.392;10.918;2023-03-14T16:31:04;13.60;99.90
42339;DHT22;27993;45.392;10.918;2023-03-14T16:33:36;13.60;99.90
42339;DHT22;27993;45.392;10.918;2023-03-14T16:36:09;13.60;99.90
42339;DHT22;27993;45.392;10.918;2023-03-14T16:38:42;13.50;99.90
42339;DHT22;27993;45.392;10.918;2023-03-14T16:41:18;13.60;99.90
42339;DHT22;27993;45.392;10.918;2023-03-14T16:43:49;13.60;99.90
42339;DHT22;27993;45.392;10.918;2023-03-14T16:46:23;13.60;99.90
42339;DHT22;27993;45.392;10.918;2023-03-14T16:48:56;13.60;99.90